sensor_id;sensor_type;location;lat;lon;timestamp;temperature;humidity
36800;DHT22;22752;51.960;5.886;2023-03-14T00:01:51;12.70;99.90
36800;DHT22;22752;51.960;5.886;2023-03-14T00:04:17;12.70;99.90
36800;DHT22;22752;51.960;5.886;2023-03-14T00:06:43;12.70;99.90
36800;DHT22;22752;51.960;5.886;2023-03-14T00:09:08;12.70;99.90
36800;DHT22;22752;51.960;5.886;2023-03-14T00:11:34;12.70;99.90
36800;DHT22;22752;51.960;5.886;2023-03-14T00:14:00;12.70;99.90
36800;DHT22;22752;51.960;5.886;2023-03-14T00:16:26;12.70;99.90
36800;DHT22;22752;51.960;5.886;2023-03-14T00:18:52;12.70;99.90
36800;DHT22;22752;51.960;5.886;2023-03-14T00:21:18;12.70;99.90
36800;DHT22;22752;51.960;5.886;2023-03-14T00:23:44;12.70;99.90
36800;DHT22;22752;51.960;5.886;2023-03-14T00:26:12;12.60;99.90
36800;DHT22;22752;51.960;5.886;2023-03-14T00:28:38;12.60;99.90
36800;DHT22;22752;51.960;5.886;2023-03-14T00:31:06;12.50;99.90
36800;DHT22;22752;51.960;5.886;2023-03-14T00:33:33;12.40;99.90
36800;DHT22;22752;51.960;5.886;2023-03-14T00:36:07;12.30;99.90
36800;DHT22;22752;51.960;5.886;2023-03-14T00:38:37;12.30;99.90
36800;DHT22;22752;51.960;5.886;2023-03-14T00:41:05;12.20;99.90
36800;DHT22;22752;51.960;5.886;2023-03-14T00:43:31;12.10;99.90
36800;DHT22;22752;51.960;5.886;2023-03-14T00:45:57;12.00;99.90
36800;DHT22;22752;51.960;5.886;2023-03-14T00:48:23;12.00;99.90
36800;DHT22;22752;51.960;5.886;2023-03-14T00:50:49;12.00;99.90
36800;DHT22;22752;51.960;5.886;2023-03-14T00:53:15;12.10;99.90
36800;DHT22;22752;51.960;5.886;2023-03-14T00:55:42;12.00;99.90
36800;DHT22;22752;51.960;5.886;2023-03-14T00:58:08;12.00;99.90
36800;DHT22;22752;51.960;5.886;2023-03-14T01:00:34;12.00;99.90
36800;DHT22;22752;51.960;5.886;2023-03-14T01:03:00;11.90;99.90
36800;DHT22;22752;51.960;5.886;2023-03-14T01:05:25;11.90;99.90
36800;DHT22;22752;51.960;5.886;2023-03-14T01:07:51;11.80;99.90
36800;DHT22;22752;51.960;5.886;2023-03-14T01:10:17;11.90;99.90
36800;DHT22;22752;51.960;5.886;2023-03-14T01:12:42;11.90;99.90
36800;DHT22;22752;51.960;5.886;2023-03-14T01:15:08;11.90;99.90
36800;DHT22;22752;51.960;5.886;2023-03-14T01:17:34;11.90;99.90
36800;DHT22;22752;51.960;5.886;2023-03-14T01:20:00;11.90;99.90
36800;DHT22;22752;51.960;5.886;2023-03-14T01:22:26;11.90;99.90
36800;DHT22;22752;51.960;5.886;2023-03-14T01:24:52;11.90;99.90
36800;DHT22;22752;51.960;5.886;2023-03-14T01:27:18;11.90;99.90
36800;DHT22;22752;51.960;5.886;2023-03-14T01:29:43;11.90;99.90
36800;DHT22;22752;51.960;5.886;2023-03-14T01:32:09;11.90;99.90
36800;DHT22;22752;51.960;5.886;2023-03-14T01:34:34;11.90;99.90
36800;DHT22;22752;51.960;5.886;2023-03-14T01:37:00;11.90;99.90
36800;DHT22;22752;51.960;5.886;2023-03-14T01:39:26;11.90;99.90
36800;DHT22;22752;51.960;5.886;2023-03-14T01:41:51;11.90;99.90
36800;DHT22;22752;51.960;5.886;2023-03-14T01:44:17;11.90;99.90
36800;DHT22;22752;51.960;5.886;2023-03-14T01:46:44;11.90;99.90
36800;DHT22;22752;51.960;5.886;2023-03-14T01:49:32;11.90;99.90
36800;DHT22;22752;51.960;5.886;2023-03-14T01:52:16;11.90;99.90
36800;DHT22;22752;51.960;5.886;2023-03-14T01:55:04;11.80;99.90
36800;DHT22;22752;51.960;5.886;2023-03-14T01:57:35;11.80;99.90
36800;DHT22;22752;51.960;5.886;2023-03-14T02:00:11;11.70;99.90
36800;DHT22;22752;51.960;5.886;2023-03-14T02:02:41;11.70;99.90
36800;DHT22;22752;51.960;5.886;2023-03-14T02:05:09;11.60;99.90
36800;DHT22;22752;51.960;5.886;2023-03-14T02:07:41;11.60;99.90
36800;DHT22;22752;51.960;5.886;2023-03-14T02:10:11;11.50;99.90
36800;DHT22;22752;51.960;5.886;2023-03-14T02:12:37;11.40;99.90
36800;DHT22;22752;51.960;5.886;2023-03-14T02:15:04;11.40;99.90
36800;DHT22;22752;51.960;5.886;2023-03-14T02:17:30;11.30;99.90
36800;DHT22;22752;51.960;5.886;2023-03-14T02:20:23;11.30;99.90
36800;DHT22;22752;51.960;5.886;2023-03-14T02:22:51;11.20;99.90
36800;DHT22;22752;51.960;5.886;2023-03-14T02:28:09;11.00;99.90
36800;DHT22;22752;51.960;5.886;2023-03-14T02:30:35;10.90;99.90
36800;DHT22;22752;51.960;5.886;2023-03-14T02:33:06;10.80;99.90
36800;DHT22;22752;51.960;5.886;2023-03-14T02:35:59;10.80;99.90
36800;DHT22;22752;51.960;5.886;2023-03-14T02:41:09;10.70;99.90
36800;DHT22;22752;51.960;5.886;2023-03-14T02:43:35;10.70;99.90
36800;DHT22;22752;51.960;5.886;2023-03-14T02:46:01;10.60;99.90
36800;DHT22;22752;51.960;5.886;2023-03-14T02:48:50;10.60;99.90
36800;DHT22;22752;51.960;5.886;2023-03-14T02:51:17;10.70;99.90
36800;DHT22;22752;51.960;5.886;2023-03-14T02:53:43;10.60;99.90
36800;DHT22;22752;51.960;5.886;2023-03-14T02:56:09;10.60;99.90
36800;DHT22;22752;51.960;5.886;2023-03-14T02:58:35;10.60;99.90
36800;DHT22;22752;51.960;5.886;2023-03-14T03:01:01;10.60;99.90
36800;DHT22;22752;51.960;5.886;2023-03-14T03:03:27;10.70;99.90
36800;DHT22;22752;51.960;5.886;2023-03-14T03:05:54;10.60;99.90
36800;DHT22;22752;51.960;5.886;2023-03-14T03:08:22;10.70;99.90
36800;DHT22;22752;51.960;5.886;2023-03-14T03:10:49;10.70;99.90
36800;DHT22;22752;51.960;5.886;2023-03-14T03:13:15;10.70;99.90
36800;DHT22;22752;51.960;5.886;2023-03-14T03:15:41;10.60;99.90
36800;DHT22;22752;51.960;5.886;2023-03-14T03:18:06;10.70;99.90
36800;DHT22;22752;51.960;5.886;2023-03-14T03:20:32;10.60;99.90
36800;DHT22;22752;51.960;5.886;2023-03-14T03:22:59;10.60;99.90
36800;DHT22;22752;51.960;5.886;2023-03-14T03:25:25;10.50;99.90
36800;DHT22;22752;51.960;5.886;2023-03-14T03:27:50;10.50;99.90
36800;DHT22;22752;51.960;5.886;2023-03-14T03:30:16;10.50;99.90
36800;DHT22;22752;51.960;5.886;2023-03-14T03:32:42;10.50;99.90
36800;DHT22;22752;51.960;5.886;2023-03-14T03:35:08;10.50;99.90
36800;DHT22;22752;51.960;5.886;2023-03-14T03:37:34;10.60;99.90
36800;DHT22;22752;51.960;5.886;2023-03-14T03:40:00;10.60;99.90
36800;DHT22;22752;51.960;5.886;2023-03-14T03:42:29;10.60;99.90
36800;DHT22;22752;51.960;5.886;2023-03-14T03:44:54;10.70;99.90
36800;DHT22;22752;51.960;5.886;2023-03-14T03:47:20;10.60;99.90
36800;DHT22;22752;51.960;5.886;2023-03-14T03:49:45;10.60;99.90
36800;DHT22;22752;51.960;5.886;2023-03-14T03:52:11;10.70;99.90
36800;DHT22;22752;51.960;5.886;2023-03-14T03:54:37;10.70;99.90
36800;DHT22;22752;51.960;5.886;2023-03-14T03:57:02;10.70;99.90
36800;DHT22;22752;51.960;5.886;2023-03-14T03:59:28;10.70;99.90
36800;DHT22;22752;51.960;5.886;2023-03-14T04:01:54;10.70;99.90
36800;DHT22;22752;51.960;5.886;2023-03-14T04:04:19;10.80;99.90
36800;DHT22;22752;51.960;5.886;2023-03-14T04:06:45;10.80;99.90
36800;DHT22;22752;51.960;5.886;2023-03-14T04:09:11;10.80;99.90
36800;DHT22;22752;51.960;5.886;2023-03-14T04:11:37;10.80;99.90
36800;DHT22;22752;51.960;5.886;2023-03-14T04:14:04;10.80;99.90
36800;DHT22;22752;51.960;5.886;2023-03-14T04:16:29;10.90;99.90
36800;DHT22;22752;51.960;5.886;2023-03-14T04:18:57;10.80;99.90
36800;DHT22;22752;51.960;5.886;2023-03-14T04:21:22;10.90;99.90
36800;DHT22;22752;51.960;5.886;2023-03-14T04:23:48;10.90;99.90
36800;DHT22;22752;51.960;5.886;2023-03-14T04:26:14;10.90;99.90
36800;DHT22;22752;51.960;5.886;2023-03-14T04:28:39;10.90;99.90
36800;DHT22;22752;51.960;5.886;2023-03-14T04:31:14;10.90;99.90
36800;DHT22;22752;51.960;5.886;2023-03-14T04:33:40;10.90;99.90
36800;DHT22;22752;51.960;5.886;2023-03-14T04:36:07;10.80;99.90
36800;DHT22;22752;51.960;5.886;2023-03-14T04:38:33;10.80;99.90
36800;DHT22;22752;51.960;5.886;2023-03-14T04:40:59;10.80;99.90
36800;DHT22;22752;51.960;5.886;2023-03-14T04:43:26;10.90;99.90
36800;DHT22;22752;51.960;5.886;2023-03-14T04:45:55;10.90;99.90
36800;DHT22;22752;51.960;5.886;2023-03-14T04:48:21;10.90;99.90
36800;DHT22;22752;51.960;5.886;2023-03-14T04:50:47;10.90;99.90
36800;DHT22;22752;51.960;5.886;2023-03-14T04:53:14;10.90;99.90
36800;DHT22;22752;51.960;5.886;2023-03-14T04:55:39;11.00;99.90
36800;DHT22;22752;51.960;5.886;2023-03-14T04:58:05;11.00;99.90
36800;DHT22;22752;51.960;5.886;2023-03-14T05:00:31;11.00;99.90
36800;DHT22;22752;51.960;5.886;2023-03-14T05:02:57;11.00;99.90
36800;DHT22;22752;51.960;5.886;2023-03-14T05:05:23;11.00;99.90
36800;DHT22;22752;51.960;5.886;2023-03-14T05:07:48;11.00;99.90
36800;DHT22;22752;51.960;5.886;2023-03-14T05:10:14;11.00;99.90
36800;DHT22;22752;51.960;5.886;2023-03-14T05:12:40;11.00;99.90
36800;DHT22;22752;51.960;5.886;2023-03-14T05:15:06;11.00;99.90
36800;DHT22;22752;51.960;5.886;2023-03-14T05:17:32;11.00;99.90
36800;DHT22;22752;51.960;5.886;2023-03-14T05:19:58;11.00;99.90
36800;DHT22;22752;51.960;5.886;2023-03-14T05:22:24;10.90;99.90
36800;DHT22;22752;51.960;5.886;2023-03-14T05:24:50;10.90;99.90
36800;DHT22;22752;51.960;5.886;2023-03-14T05:27:15;10.90;99.90
36800;DHT22;22752;51.960;5.886;2023-03-14T05:29:41;10.90;99.90
36800;DHT22;22752;51.960;5.886;2023-03-14T05:32:07;10.90;99.90
36800;DHT22;22752;51.960;5.886;2023-03-14T05:34:32;10.90;99.90
36800;DHT22;22752;51.960;5.886;2023-03-14T05:36:58;10.80;99.90
36800;DHT22;22752;51.960;5.886;2023-03-14T05:39:24;10.80;99.90
36800;DHT22;22752;51.960;5.886;2023-03-14T05:41:49;10.80;99.90
36800;DHT22;22752;51.960;5.886;2023-03-14T05:44:16;10.80;99.90
36800;DHT22;22752;51.960;5.886;2023-03-14T05:46:42;10.80;99.90
36800;DHT22;22752;51.960;5.886;2023-03-14T05:49:07;10.80;99.90
36800;DHT22;22752;51.960;5.886;2023-03-14T05:51:33;10.80;99.90
36800;DHT22;22752;51.960;5.886;2023-03-14T05:53:59;10.80;99.90
36800;DHT22;22752;51.960;5.886;2023-03-14T05:56:24;10.80;99.90
36800;DHT22;22752;51.960;5.886;2023-03-14T05:58:50;10.70;99.90
36800;DHT22;22752;51.960;5.886;2023-03-14T06:01:15;10.70;99.90
36800;DHT22;22752;51.960;5.886;2023-03-14T06:03:41;10.70;99.90
36800;DHT22;22752;51.960;5.886;2023-03-14T06:06:07;10.70;99.90
36800;DHT22;22752;51.960;5.886;2023-03-14T06:08:32;10.70;99.90
36800;DHT22;22752;51.960;5.886;2023-03-14T06:10:59;10.70;99.90
36800;DHT22;22752;51.960;5.886;2023-03-14T06:13:27;10.60;99.90
36800;DHT22;22752;51.960;5.886;2023-03-14T06:15:53;10.60;99.90
36800;DHT22;22752;51.960;5.886;2023-03-14T06:18:19;10.60;99.90
36800;DHT22;22752;51.960;5.886;2023-03-14T06:20:44;10.60;99.90
36800;DHT22;22752;51.960;5.886;2023-03-14T06:23:10;10.60;99.90
36800;DHT22;22752;51.960;5.886;2023-03-14T06:25:36;10.60;99.90
36800;DHT22;22752;51.960;5.886;2023-03-14T06:28:02;10.60;99.90
36800;DHT22;22752;51.960;5.886;2023-03-14T06:30:28;10.60;99.90
36800;DHT22;22752;51.960;5.886;2023-03-14T06:32:54;10.60;99.90
36800;DHT22;22752;51.960;5.886;2023-03-14T06:35:21;10.60;99.90
36800;DHT22;22752;51.960;5.886;2023-03-14T06:37:47;10.60;99.90
36800;DHT22;22752;51.960;5.886;2023-03-14T06:40:13;10.60;99.90
36800;DHT22;22752;51.960;5.886;2023-03-14T06:42:43;10.60;99.90
36800;DHT22;22752;51.960;5.886;2023-03-14T06:45:09;10.70;99.90
36800;DHT22;22752;51.960;5.886;2023-03-14T06:47:35;10.60;99.90
36800;DHT22;22752;51.960;5.886;2023-03-14T06:50:00;10.70;99.90
36800;DHT22;22752;51.960;5.886;2023-03-14T06:52:26;10.60;99.90
36800;DHT22;22752;51.960;5.886;2023-03-14T06:54:52;10.70;99.90
36800;DHT22;22752;51.960;5.886;2023-03-14T06:57:17;10.70;99.90
36800;DHT22;22752;51.960;5.886;2023-03-14T06:59:43;10.70;99.90
36800;DHT22;22752;51.960;5.886;2023-03-14T07:02:11;10.70;99.90
36800;DHT22;22752;51.960;5.886;2023-03-14T07:04:38;10.70;99.90
36800;DHT22;22752;51.960;5.886;2023-03-14T07:07:04;10.70;99.90
36800;DHT22;22752;51.960;5.886;2023-03-14T07:09:29;10.80;99.90
36800;DHT22;22752;51.960;5.886;2023-03-14T07:11:55;10.90;99.90
36800;DHT22;22752;51.960;5.886;2023-03-14T07:14:21;10.90;99.90
36800;DHT22;22752;51.960;5.886;2023-03-14T07:16:46;10.90;99.90
36800;DHT22;22752;51.960;5.886;2023-03-14T07:19:12;11.00;99.90
36800;DHT22;22752;51.960;5.886;2023-03-14T07:21:37;11.00;99.90
36800;DHT22;22752;51.960;5.886;2023-03-14T07:24:04;11.00;99.90
36800;DHT22;22752;51.960;5.886;2023-03-14T07:26:30;10.90;99.90
36800;DHT22;22752;51.960;5.886;2023-03-14T07:28:55;10.90;99.90
36800;DHT22;22752;51.960;5.886;2023-03-14T07:31:21;10.80;99.90
36800;DHT22;22752;51.960;5.886;2023-03-14T07:33:47;10.60;99.90
36800;DHT22;22752;51.960;5.886;2023-03-14T07:36:13;10.60;99.90
36800;DHT22;22752;51.960;5.886;2023-03-14T07:38:38;10.60;99.90
36800;DHT22;22752;51.960;5.886;2023-03-14T07:41:06;10.50;99.90
36800;DHT22;22752;51.960;5.886;2023-03-14T07:43:32;10.50;99.90
36800;DHT22;22752;51.960;5.886;2023-03-14T07:45:58;10.40;99.90
36800;DHT22;22752;51.960;5.886;2023-03-14T07:48:24;10.30;99.90
36800;DHT22;22752;51.960;5.886;2023-03-14T07:50:54;10.20;99.90
36800;DHT22;22752;51.960;5.886;2023-03-14T07:53:21;10.00;99.90
36800;DHT22;22752;51.960;5.886;2023-03-14T07:55:47;9.80;99.90
36800;DHT22;22752;51.960;5.886;2023-03-14T07:58:13;9.60;99.90
36800;DHT22;22752;51.960;5.886;2023-03-14T08:00:39;9.50;99.90
36800;DHT22;22752;51.960;5.886;2023-03-14T08:03:04;9.40;99.90
36800;DHT22;22752;51.960;5.886;2023-03-14T08:05:30;9.40;99.90
36800;DHT22;22752;51.960;5.886;2023-03-14T08:07:55;9.30;99.90
36800;DHT22;22752;51.960;5.886;2023-03-14T08:10:21;9.30;99.90
36800;DHT22;22752;51.960;5.886;2023-03-14T08:12:52;9.20;99.90
36800;DHT22;22752;51.960;5.886;2023-03-14T08:15:19;9.10;99.90
36800;DHT22;22752;51.960;5.886;2023-03-14T08:17:44;9.00;99.90
36800;DHT22;22752;51.960;5.886;2023-03-14T08:20:11;8.90;99.90
36800;DHT22;22752;51.960;5.886;2023-03-14T08:22:37;8.90;99.90
36800;DHT22;22752;51.960;5.886;2023-03-14T08:25:04;8.90;99.90
36800;DHT22;22752;51.960;5.886;2023-03-14T08:27:29;8.90;99.90
36800;DHT22;22752;51.960;5.886;2023-03-14T08:29:55;8.90;99.90
36800;DHT22;22752;51.960;5.886;2023-03-14T08:32:21;9.00;99.90
36800;DHT22;22752;51.960;5.886;2023-03-14T08:34:48;9.10;99.90
36800;DHT22;22752;51.960;5.886;2023-03-14T08:37:14;9.20;99.90
36800;DHT22;22752;51.960;5.886;2023-03-14T08:39:40;9.30;99.90
36800;DHT22;22752;51.960;5.886;2023-03-14T08:42:05;9.30;99.90
36800;DHT22;22752;51.960;5.886;2023-03-14T08:44:31;9.20;99.90
36800;DHT22;22752;51.960;5.886;2023-03-14T08:46:57;9.10;99.90
36800;DHT22;22752;51.960;5.886;2023-03-14T08:49:22;8.90;99.90
36800;DHT22;22752;51.960;5.886;2023-03-14T08:51:48;8.60;99.90
36800;DHT22;22752;51.960;5.886;2023-03-14T08:54:13;8.50;99.90
36800;DHT22;22752;51.960;5.886;2023-03-14T08:56:39;8.40;99.90
36800;DHT22;22752;51.960;5.886;2023-03-14T08:59:05;8.40;99.90
36800;DHT22;22752;51.960;5.886;2023-03-14T09:01:32;8.30;99.90
36800;DHT22;22752;51.960;5.886;2023-03-14T09:03:57;8.20;99.90
36800;DHT22;22752;51.960;5.886;2023-03-14T09:06:23;8.20;99.90
36800;DHT22;22752;51.960;5.886;2023-03-14T09:08:49;8.00;99.90
36800;DHT22;22752;51.960;5.886;2023-03-14T09:11:15;8.00;99.90
36800;DHT22;22752;51.960;5.886;2023-03-14T09:13:40;8.00;99.90
36800;DHT22;22752;51.960;5.886;2023-03-14T09:16:07;8.10;99.90
36800;DHT22;22752;51.960;5.886;2023-03-14T09:18:32;8.30;99.90
36800;DHT22;22752;51.960;5.886;2023-03-14T09:20:58;8.40;99.90
36800;DHT22;22752;51.960;5.886;2023-03-14T09:23:24;8.20;99.90
36800;DHT22;22752;51.960;5.886;2023-03-14T09:25:57;8.10;99.90
36800;DHT22;22752;51.960;5.886;2023-03-14T09:28:24;8.00;99.90
36800;DHT22;22752;51.960;5.886;2023-03-14T09:30:50;8.00;99.90
36800;DHT22;22752;51.960;5.886;2023-03-14T09:33:16;8.00;99.90
36800;DHT22;22752;51.960;5.886;2023-03-14T09:35:42;8.00;99.90
36800;DHT22;22752;51.960;5.886;2023-03-14T09:38:08;8.10;99.90
36800;DHT22;22752;51.960;5.886;2023-03-14T09:40:36;8.20;99.90
36800;DHT22;22752;51.960;5.886;2023-03-14T09:43:03;8.30;99.90
36800;DHT22;22752;51.960;5.886;2023-03-14T09:45:35;8.50;99.90
36800;DHT22;22752;51.960;5.886;2023-03-14T09:48:03;8.60;99.90
36800;DHT22;22752;51.960;5.886;2023-03-14T09:50:50;8.60;99.90
36800;DHT22;22752;51.960;5.886;2023-03-14T09:53:20;8.60;99.90
36800;DHT22;22752;51.960;5.886;2023-03-14T09:55:49;8.50;99.90
36800;DHT22;22752;51.960;5.886;2023-03-14T09:58:20;8.50;99.90
36800;DHT22;22752;51.960;5.886;2023-03-14T10:00:46;8.40;99.90
36800;DHT22;22752;51.960;5.886;2023-03-14T10:05:41;8.30;99.90
36800;DHT22;22752;51.960;5.886;2023-03-14T10:08:10;8.30;99.90
36800;DHT22;22752;51.960;5.886;2023-03-14T10:10:36;8.30;99.90
36800;DHT22;22752;51.960;5.886;2023-03-14T10:15:37;8.40;99.90
36800;DHT22;22752;51.960;5.886;2023-03-14T10:18:12;8.40;99.90
36800;DHT22;22752;51.960;5.886;2023-03-14T10:20:41;8.50;99.90
36800;DHT22;22752;51.960;5.886;2023-03-14T10:26:07;8.70;99.90
36800;DHT22;22752;51.960;5.886;2023-03-14T10:28:39;8.70;99.90
36800;DHT22;22752;51.960;5.886;2023-03-14T10:31:05;8.70;99.90
36800;DHT22;22752;51.960;5.886;2023-03-14T10:33:33;8.70;99.90
36800;DHT22;22752;51.960;5.886;2023-03-14T10:36:02;8.70;99.90
36800;DHT22;22752;51.960;5.886;2023-03-14T10:38:34;8.80;99.90
36800;DHT22;22752;51.960;5.886;2023-03-14T10:41:00;9.00;99.90
36800;DHT22;22752;51.960;5.886;2023-03-14T10:43:35;9.10;99.90
36800;DHT22;22752;51.960;5.886;2023-03-14T10:48:34;9.00;99.90
36800;DHT22;22752;51.960;5.886;2023-03-14T10:51:19;9.00;99.90
36800;DHT22;22752;51.960;5.886;2023-03-14T10:56:27;9.20;99.90
36800;DHT22;22752;51.960;5.886;2023-03-14T10:58:56;9.20;99.90
36800;DHT22;22752;51.960;5.886;2023-03-14T11:01:54;9.20;99.90
36800;DHT22;22752;51.960;5.886;2023-03-14T11:07:22;8.80;99.90
36800;DHT22;22752;51.960;5.886;2023-03-14T11:09:56;8.30;99.90
36800;DHT22;22752;51.960;5.886;2023-03-14T11:20:59;7.20;99.90
36800;DHT22;22752;51.960;5.886;2023-03-14T11:24:14;7.20;99.90
36800;DHT22;22752;51.960;5.886;2023-03-14T11:26:29;7.30;99.90
36800;DHT22;22752;51.960;5.886;2023-03-14T11:31:44;7.50;99.90
36800;DHT22;22752;51.960;5.886;2023-03-14T11:34:16;7.50;99.90
36800;DHT22;22752;51.960;5.886;2023-03-14T11:36:59;7.40;99.90
36800;DHT22;22752;51.960;5.886;2023-03-14T11:39:29;7.30;99.90
36800;DHT22;22752;51.960;5.886;2023-03-14T11:42:00;7.30;99.90
36800;DHT22;22752;51.960;5.886;2023-03-14T11:44:29;7.30;99.90
36800;DHT22;22752;51.960;5.886;2023-03-14T11:49:58;7.50;99.90
36800;DHT22;22752;51.960;5.886;2023-03-14T11:54:55;7.60;99.90
36800;DHT22;22752;51.960;5.886;2023-03-14T11:57:22;7.70;99.90
36800;DHT22;22752;51.960;5.886;2023-03-14T12:05:33;7.40;99.90
36800;DHT22;22752;51.960;5.886;2023-03-14T12:10:51;7.40;99.90
36800;DHT22;22752;51.960;5.886;2023-03-14T12:13:19;7.50;99.90
36800;DHT22;22752;51.960;5.886;2023-03-14T12:15:56;7.60;99.90
36800;DHT22;22752;51.960;5.886;2023-03-14T12:18:33;7.70;99.90
36800;DHT22;22752;51.960;5.886;2023-03-14T12:21:02;7.80;99.90
36800;DHT22;22752;51.960;5.886;2023-03-14T12:23:41;8.00;99.90
36800;DHT22;22752;51.960;5.886;2023-03-14T12:28:36;8.00;99.90
36800;DHT22;22752;51.960;5.886;2023-03-14T12:34:03;8.00;99.90
36800;DHT22;22752;51.960;5.886;2023-03-14T12:39:21;8.00;99.90
36800;DHT22;22752;51.960;5.886;2023-03-14T12:42:05;8.00;99.90
36800;DHT22;22752;51.960;5.886;2023-03-14T12:49:54;8.20;99.90
36800;DHT22;22752;51.960;5.886;2023-03-14T12:52:37;8.30;99.90
36800;DHT22;22752;51.960;5.886;2023-03-14T12:58:03;8.40;99.90
36800;DHT22;22752;51.960;5.886;2023-03-14T13:00:34;8.40;99.90
36800;DHT22;22752;51.960;5.886;2023-03-14T13:03:21;8.30;99.90
36800;DHT22;22752;51.960;5.886;2023-03-14T13:05:59;8.30;99.90
36800;DHT22;22752;51.960;5.886;2023-03-14T13:11:01;8.20;99.90
36800;DHT22;22752;51.960;5.886;2023-03-14T13:13:28;8.20;99.90
36800;DHT22;22752;51.960;5.886;2023-03-14T13:15:56;8.20;99.90
36800;DHT22;22752;51.960;5.886;2023-03-14T13:18:35;8.30;99.90
36800;DHT22;22752;51.960;5.886;2023-03-14T13:21:22;8.30;99.90
36800;DHT22;22752;51.960;5.886;2023-03-14T13:24:05;8.40;99.90
36800;DHT22;22752;51.960;5.886;2023-03-14T13:26:39;8.50;99.90
36800;DHT22;22752;51.960;5.886;2023-03-14T13:29:26;8.60;99.90
36800;DHT22;22752;51.960;5.886;2023-03-14T13:31:55;8.80;99.90
36800;DHT22;22752;51.960;5.886;2023-03-14T13:34:32;8.80;99.90
36800;DHT22;22752;51.960;5.886;2023-03-14T13:36:58;8.90;99.90
36800;DHT22;22752;51.960;5.886;2023-03-14T13:39:25;8.90;99.90
36800;DHT22;22752;51.960;5.886;2023-03-14T13:42:01;8.90;99.90
36800;DHT22;22752;51.960;5.886;2023-03-14T13:44:35;8.90;99.90
36800;DHT22;22752;51.960;5.886;2023-03-14T13:47:04;9.00;99.90
36800;DHT22;22752;51.960;5.886;2023-03-14T13:49:32;9.10;99.60
36800;DHT22;22752;51.960;5.886;2023-03-14T13:52:01;9.00;99.60
36800;DHT22;22752;51.960;5.886;2023-03-14T13:54:27;9.10;98.20
36800;DHT22;22752;51.960;5.886;2023-03-14T13:57:05;9.00;97.20
36800;DHT22;22752;51.960;5.886;2023-03-14T13:59:32;9.00;98.00
36800;DHT22;22752;51.960;5.886;2023-03-14T14:02:00;9.00;97.70
36800;DHT22;22752;51.960;5.886;2023-03-14T14:04:29;9.10;97.80
36800;DHT22;22752;51.960;5.886;2023-03-14T14:06:59;9.20;98.00
36800;DHT22;22752;51.960;5.886;2023-03-14T14:09:30;9.30;97.90
36800;DHT22;22752;51.960;5.886;2023-03-14T14:12:00;9.40;97.90
36800;DHT22;22752;51.960;5.886;2023-03-14T14:14:37;9.40;97.80
36800;DHT22;22752;51.960;5.886;2023-03-14T14:17:08;9.50;98.70
36800;DHT22;22752;51.960;5.886;2023-03-14T14:19:35;9.60;96.70
36800;DHT22;22752;51.960;5.886;2023-03-14T14:22:02;9.60;97.60
36800;DHT22;22752;51.960;5.886;2023-03-14T14:24:30;9.70;97.10
36800;DHT22;22752;51.960;5.886;2023-03-14T14:27:07;9.70;96.80
36800;DHT22;22752;51.960;5.886;2023-03-14T14:29:33;9.70;96.80
36800;DHT22;22752;51.960;5.886;2023-03-14T14:32:11;9.70;96.40
36800;DHT22;22752;51.960;5.886;2023-03-14T14:34:45;9.70;95.80
36800;DHT22;22752;51.960;5.886;2023-03-14T14:37:27;9.60;96.00
36800;DHT22;22752;51.960;5.886;2023-03-14T14:39:59;9.40;96.30
36800;DHT22;22752;51.960;5.886;2023-03-14T14:42:28;9.10;95.20
36800;DHT22;22752;51.960;5.886;2023-03-14T14:44:56;9.00;94.40
36800;DHT22;22752;51.960;5.886;2023-03-14T14:47:24;8.80;94.40
36800;DHT22;22752;51.960;5.886;2023-03-14T14:49:52;8.70;94.60
36800;DHT22;22752;51.960;5.886;2023-03-14T14:52:41;8.70;94.90
36800;DHT22;22752;51.960;5.886;2023-03-14T14:55:18;8.80;95.00
36800;DHT22;22752;51.960;5.886;2023-03-14T14:57:55;8.70;95.50
36800;DHT22;22752;51.960;5.886;2023-03-14T15:00:26;8.70;95.50
36800;DHT22;22752;51.960;5.886;2023-03-14T15:02:54;8.70;95.80
36800;DHT22;22752;51.960;5.886;2023-03-14T15:05:23;8.60;95.70
36800;DHT22;22752;51.960;5.886;2023-03-14T15:07:49;8.60;94.80
36800;DHT22;22752;51.960;5.886;2023-03-14T15:10:17;8.60;94.10
36800;DHT22;22752;51.960;5.886;2023-03-14T15:12:43;8.60;93.50
36800;DHT22;22752;51.960;5.886;2023-03-14T15:15:10;8.50;93.80
36800;DHT22;22752;51.960;5.886;2023-03-14T15:17:37;8.60;93.80
36800;DHT22;22752;51.960;5.886;2023-03-14T15:20:04;8.60;94.20
36800;DHT22;22752;51.960;5.886;2023-03-14T15:22:30;8.70;94.40
36800;DHT22;22752;51.960;5.886;2023-03-14T15:24:56;8.60;94.10
36800;DHT22;22752;51.960;5.886;2023-03-14T15:27:22;8.70;95.00
36800;DHT22;22752;51.960;5.886;2023-03-14T15:29:48;8.60;94.70
36800;DHT22;22752;51.960;5.886;2023-03-14T15:32:15;8.60;93.90
36800;DHT22;22752;51.960;5.886;2023-03-14T15:34:42;8.60;94.40
36800;DHT22;22752;51.960;5.886;2023-03-14T15:37:16;8.60;94.70
36800;DHT22;22752;51.960;5.886;2023-03-14T15:39:44;8.60;95.60
36800;DHT22;22752;51.960;5.886;2023-03-14T15:42:10;8.70;96.00
36800;DHT22;22752;51.960;5.886;2023-03-14T15:44:35;8.70;95.60
36800;DHT22;22752;51.960;5.886;2023-03-14T15:47:01;8.60;95.50
36800;DHT22;22752;51.960;5.886;2023-03-14T15:49:27;8.50;95.70
36800;DHT22;22752;51.960;5.886;2023-03-14T15:51:53;8.50;96.10
36800;DHT22;22752;51.960;5.886;2023-03-14T15:54:19;8.50;96.50
36800;DHT22;22752;51.960;5.886;2023-03-14T15:56:44;8.40;96.00
36800;DHT22;22752;51.960;5.886;2023-03-14T15:59:10;8.40;95.60
36800;DHT22;22752;51.960;5.886;2023-03-14T16:01:36;8.30;96.20
36800;DHT22;22752;51.960;5.886;2023-03-14T16:04:01;8.20;96.30
36800;DHT22;22752;51.960;5.886;2023-03-14T16:06:28;8.20;97.00
36800;DHT22;22752;51.960;5.886;2023-03-14T16:08:53;8.10;96.20
36800;DHT22;22752;51.960;5.886;2023-03-14T16:11:19;8.10;95.90
36800;DHT22;22752;51.960;5.886;2023-03-14T16:13:46;8.00;96.50
36800;DHT22;22752;51.960;5.886;2023-03-14T16:16:12;7.90;96.50
36800;DHT22;22752;51.960;5.886;2023-03-14T16:18:38;7.90;96.80
36800;DHT22;22752;51.960;5.886;2023-03-14T16:21:07;7.80;96.50
36800;DHT22;22752;51.960;5.886;2023-03-14T16:23:34;7.80;96.50
36800;DHT22;22752;51.960;5.886;2023-03-14T16:26:03;7.80;96.70
36800;DHT22;22752;51.960;5.886;2023-03-14T16:28:30;7.80;96.90
36800;DHT22;22752;51.960;5.886;2023-03-14T16:31:13;7.70;96.90
36800;DHT22;22752;51.960;5.886;2023-03-14T16:33:39;7.80;96.80
36800;DHT22;22752;51.960;5.886;2023-03-14T16:36:07;7.70;96.90
36800;DHT22;22752;51.960;5.886;2023-03-14T16:38:34;7.70;96.50
36800;DHT22;22752;51.960;5.886;2023-03-14T16:41:14;7.70;96.20
36800;DHT22;22752;51.960;5.886;2023-03-14T16:43:40;7.60;96.50
36800;DHT22;22752;51.960;5.886;2023-03-14T16:46:10;7.50;96.80
36800;DHT22;22752;51.960;5.886;2023-03-14T16:48:36;7.50;96.80
36800;DHT22;22752;51.960;5.886;2023-03-14T16:51:03;7.50;97.10